sensor_id;sensor_type;location;lat;lon;timestamp;P1;durP1;ratioP1;P2;durP2;ratioP2
72791;SDS011;60907;53.268;8.764;2023-04-25T00:01:45;20.75;;;3.65;;
72791;SDS011;60907;53.268;8.764;2023-04-25T00:04:11;15.55;;;3.17;;
72791;SDS011;60907;53.268;8.764;2023-04-25T00:06:37;13.23;;;2.60;;
72791;SDS011;60907;53.268;8.764;2023-04-25T00:09:05;11.68;;;3.03;;
72791;SDS011;60907;53.268;8.764;2023-04-25T00:11:36;14.13;;;2.97;;
72791;SDS011;60907;53.268;8.764;2023-04-25T00:14:02;14.35;;;2.80;;
72791;SDS011;60907;53.268;8.764;2023-04-25T00:16:28;14.90;;;3.05;;
72791;SDS011;60907;53.268;8.764;2023-04-25T00:18:54;13.50;;;3.00;;
72791;SDS011;60907;53.268;8.764;2023-04-25T00:21:20;10.68;;;2.72;;
72791;SDS011;60907;53.268;8.764;2023-04-25T00:23:46;8.85;;;2.65;;
72791;SDS011;60907;53.268;8.764;2023-04-25T00:26:11;12.00;;;3.10;;
72791;SDS011;60907;53.268;8.764;2023-04-25T00:28:37;13.07;;;3.40;;
72791;SDS011;60907;53.268;8.764;2023-04-25T00:31:03;11.82;;;3.00;;
72791;SDS011;60907;53.268;8.764;2023-04-25T00:33:28;16.58;;;2.95;;
72791;SDS011;60907;53.268;8.764;2023-04-25T00:35:55;12.52;;;2.88;;
72791;SDS011;60907;53.268;8.764;2023-04-25T00:38:20;15.93;;;3.63;;
72791;SDS011;60907;53.268;8.764;2023-04-25T00:40:46;9.30;;;2.83;;
72791;SDS011;60907;53.268;8.764;2023-04-25T00:43:12;13.48;;;2.95;;
72791;SDS011;60907;53.268;8.764;2023-04-25T00:45:37;14.55;;;2.78;;
72791;SDS011;60907;53.268;8.764;2023-04-25T00:48:04;14.70;;;3.20;;
72791;SDS011;60907;53.268;8.764;2023-04-25T00:50:29;11.70;;;2.95;;
72791;SDS011;60907;53.268;8.764;2023-04-25T00:52:55;13.52;;;3.38;;
72791;SDS011;60907;53.268;8.764;2023-04-25T00:55:21;10.48;;;2.78;;
72791;SDS011;60907;53.268;8.764;2023-04-25T00:57:46;10.52;;;3.03;;
72791;SDS011;60907;53.268;8.764;2023-04-25T01:00:12;11.15;;;2.38;;
72791;SDS011;60907;53.268;8.764;2023-04-25T01:02:39;9.90;;;2.78;;
72791;SDS011;60907;53.268;8.764;2023-04-25T01:05:06;12.43;;;2.42;;
72791;SDS011;60907;53.268;8.764;2023-04-25T01:07:31;11.82;;;3.95;;
72791;SDS011;60907;53.268;8.764;2023-04-25T01:09:57;12.35;;;3.53;;
72791;SDS011;60907;53.268;8.764;2023-04-25T01:12:23;18.38;;;3.10;;
72791;SDS011;60907;53.268;8.764;2023-04-25T01:14:48;15.15;;;2.58;;
72791;SDS011;60907;53.268;8.764;2023-04-25T01:17:14;11.60;;;2.45;;
72791;SDS011;60907;53.268;8.764;2023-04-25T01:19:41;10.73;;;2.30;;
72791;SDS011;60907;53.268;8.764;2023-04-25T01:22:06;10.15;;;2.35;;
72791;SDS011;60907;53.268;8.764;2023-04-25T01:24:32;6.53;;;2.22;;
72791;SDS011;60907;53.268;8.764;2023-04-25T01:27:00;11.65;;;2.78;;
72791;SDS011;60907;53.268;8.764;2023-04-25T01:29:27;11.90;;;2.22;;
72791;SDS011;60907;53.268;8.764;2023-04-25T01:31:53;12.85;;;2.70;;
72791;SDS011;60907;53.268;8.764;2023-04-25T01:34:19;7.85;;;2.13;;
72791;SDS011;60907;53.268;8.764;2023-04-25T01:36:44;16.05;;;2.97;;
72791;SDS011;60907;53.268;8.764;2023-04-25T01:39:10;9.40;;;2.50;;
72791;SDS011;60907;53.268;8.764;2023-04-25T01:41:36;12.82;;;2.92;;
72791;SDS011;60907;53.268;8.764;2023-04-25T01:44:02;16.45;;;3.38;;
72791;SDS011;60907;53.268;8.764;2023-04-25T01:46:27;12.50;;;2.13;;
72791;SDS011;60907;53.268;8.764;2023-04-25T01:48:53;8.73;;;2.25;;
72791;SDS011;60907;53.268;8.764;2023-04-25T01:51:18;15.20;;;2.40;;
72791;SDS011;60907;53.268;8.764;2023-04-25T01:53:44;8.73;;;2.30;;
72791;SDS011;60907;53.268;8.764;2023-04-25T01:56:10;4.57;;;1.90;;
72791;SDS011;60907;53.268;8.764;2023-04-25T01:58:35;11.02;;;2.20;;
72791;SDS011;60907;53.268;8.764;2023-04-25T02:01:03;14.45;;;1.85;;
72791;SDS011;60907;53.268;8.764;2023-04-25T02:03:30;8.88;;;2.38;;
72791;SDS011;60907;53.268;8.764;2023-04-25T02:05:56;10.10;;;2.13;;
72791;SDS011;60907;53.268;8.764;2023-04-25T02:08:22;9.85;;;2.25;;
72791;SDS011;60907;53.268;8.764;2023-04-25T02:10:47;7.88;;;2.03;;
72791;SDS011;60907;53.268;8.764;2023-04-25T02:13:12;14.80;;;2.00;;
72791;SDS011;60907;53.268;8.764;2023-04-25T02:15:38;6.72;;;2.08;;
72791;SDS011;60907;53.268;8.764;2023-04-25T02:18:03;15.18;;;2.30;;
72791;SDS011;60907;53.268;8.764;2023-04-25T02:22:57;11.15;;;2.38;;
72791;SDS011;60907;53.268;8.764;2023-04-25T02:25:22;7.20;;;1.85;;
72791;SDS011;60907;53.268;8.764;2023-04-25T02:27:48;12.65;;;2.95;;
72791;SDS011;60907;53.268;8.764;2023-04-25T02:30:14;12.98;;;3.63;;
72791;SDS011;60907;53.268;8.764;2023-04-25T02:32:39;13.15;;;3.05;;
72791;SDS011;60907;53.268;8.764;2023-04-25T02:35:06;11.52;;;2.78;;
72791;SDS011;60907;53.268;8.764;2023-04-25T02:37:32;7.90;;;2.50;;
72791;SDS011;60907;53.268;8.764;2023-04-25T02:39:58;9.30;;;2.13;;
72791;SDS011;60907;53.268;8.764;2023-04-25T02:42:24;11.02;;;2.10;;
72791;SDS011;60907;53.268;8.764;2023-04-25T02:44:49;9.75;;;2.47;;
72791;SDS011;60907;53.268;8.764;2023-04-25T02:47:15;14.48;;;2.92;;
72791;SDS011;60907;53.268;8.764;2023-04-25T02:49:40;11.43;;;2.63;;
72791;SDS011;60907;53.268;8.764;2023-04-25T02:52:06;9.50;;;2.20;;
72791;SDS011;60907;53.268;8.764;2023-04-25T02:54:31;12.27;;;2.28;;
72791;SDS011;60907;53.268;8.764;2023-04-25T02:56:57;7.80;;;2.05;;
72791;SDS011;60907;53.268;8.764;2023-04-25T02:59:22;12.48;;;2.60;;
72791;SDS011;60907;53.268;8.764;2023-04-25T03:01:48;11.00;;;2.20;;
72791;SDS011;60907;53.268;8.764;2023-04-25T03:04:13;13.32;;;3.38;;
72791;SDS011;60907;53.268;8.764;2023-04-25T03:06:39;11.98;;;2.47;;
72791;SDS011;60907;53.268;8.764;2023-04-25T03:09:04;12.20;;;2.78;;
72791;SDS011;60907;53.268;8.764;2023-04-25T03:11:30;10.65;;;2.38;;
72791;SDS011;60907;53.268;8.764;2023-04-25T03:13:55;7.95;;;2.03;;
72791;SDS011;60907;53.268;8.764;2023-04-25T03:16:21;12.35;;;2.25;;
72791;SDS011;60907;53.268;8.764;2023-04-25T03:18:47;13.00;;;3.08;;
72791;SDS011;60907;53.268;8.764;2023-04-25T03:21:12;7.45;;;2.83;;
72791;SDS011;60907;53.268;8.764;2023-04-25T03:23:38;9.98;;;3.10;;
72791;SDS011;60907;53.268;8.764;2023-04-25T03:26:03;8.48;;;1.70;;
72791;SDS011;60907;53.268;8.764;2023-04-25T03:28:29;10.35;;;2.72;;
72791;SDS011;60907;53.268;8.764;2023-04-25T03:30:54;11.00;;;2.33;;
72791;SDS011;60907;53.268;8.764;2023-04-25T03:33:20;7.03;;;2.13;;
72791;SDS011;60907;53.268;8.764;2023-04-25T03:35:45;13.60;;;2.80;;
72791;SDS011;60907;53.268;8.764;2023-04-25T03:38:11;11.60;;;2.15;;
72791;SDS011;60907;53.268;8.764;2023-04-25T03:40:36;5.90;;;1.63;;
72791;SDS011;60907;53.268;8.764;2023-04-25T03:43:02;7.93;;;1.58;;
72791;SDS011;60907;53.268;8.764;2023-04-25T03:45:27;9.50;;;1.60;;
72791;SDS011;60907;53.268;8.764;2023-04-25T03:47:53;7.85;;;1.80;;
72791;SDS011;60907;53.268;8.764;2023-04-25T03:50:18;8.55;;;2.88;;
72791;SDS011;60907;53.268;8.764;2023-04-25T03:52:43;15.63;;;2.28;;
72791;SDS011;60907;53.268;8.764;2023-04-25T03:55:09;7.93;;;1.60;;
72791;SDS011;60907;53.268;8.764;2023-04-25T03:57:35;12.73;;;2.00;;
72791;SDS011;60907;53.268;8.764;2023-04-25T04:00:00;13.27;;;2.42;;
72791;SDS011;60907;53.268;8.764;2023-04-25T04:02:26;13.10;;;2.25;;
72791;SDS011;60907;53.268;8.764;2023-04-25T04:04:52;12.10;;;2.65;;
72791;SDS011;60907;53.268;8.764;2023-04-25T04:07:17;11.90;;;2.15;;
72791;SDS011;60907;53.268;8.764;2023-04-25T04:09:43;7.85;;;2.53;;
72791;SDS011;60907;53.268;8.764;2023-04-25T04:12:08;11.90;;;2.35;;
72791;SDS011;60907;53.268;8.764;2023-04-25T04:14:33;8.15;;;2.42;;
72791;SDS011;60907;53.268;8.764;2023-04-25T04:16:59;11.05;;;1.88;;
72791;SDS011;60907;53.268;8.764;2023-04-25T04:19:25;8.63;;;1.50;;
72791;SDS011;60907;53.268;8.764;2023-04-25T04:21:50;9.05;;;2.20;;
72791;SDS011;60907;53.268;8.764;2023-04-25T04:24:16;8.93;;;1.80;;
72791;SDS011;60907;53.268;8.764;2023-04-25T04:26:41;7.07;;;1.48;;
72791;SDS011;60907;53.268;8.764;2023-04-25T04:29:10;7.70;;;1.92;;
72791;SDS011;60907;53.268;8.764;2023-04-25T04:31:35;6.57;;;1.90;;
72791;SDS011;60907;53.268;8.764;2023-04-25T04:34:01;13.15;;;1.63;;
72791;SDS011;60907;53.268;8.764;2023-04-25T04:36:28;13.73;;;1.60;;
72791;SDS011;60907;53.268;8.764;2023-04-25T04:38:54;8.63;;;1.45;;
72791;SDS011;60907;53.268;8.764;2023-04-25T04:41:21;10.07;;;1.65;;
72791;SDS011;60907;53.268;8.764;2023-04-25T04:43:47;8.48;;;1.80;;
72791;SDS011;60907;53.268;8.764;2023-04-25T04:46:12;8.50;;;1.73;;
72791;SDS011;60907;53.268;8.764;2023-04-25T04:48:38;6.65;;;1.60;;
72791;SDS011;60907;53.268;8.764;2023-04-25T04:51:05;6.53;;;1.38;;
72791;SDS011;60907;53.268;8.764;2023-04-25T04:53:30;4.68;;;1.38;;
72791;SDS011;60907;53.268;8.764;2023-04-25T04:55:56;5.45;;;1.50;;
72791;SDS011;60907;53.268;8.764;2023-04-25T04:58:21;6.45;;;1.73;;
72791;SDS011;60907;53.268;8.764;2023-04-25T05:00:47;6.80;;;1.30;;
72791;SDS011;60907;53.268;8.764;2023-04-25T05:03:13;7.13;;;1.83;;
72791;SDS011;60907;53.268;8.764;2023-04-25T05:05:38;10.77;;;1.70;;
72791;SDS011;60907;53.268;8.764;2023-04-25T05:08:05;10.50;;;1.70;;
72791;SDS011;60907;53.268;8.764;2023-04-25T05:10:31;9.15;;;1.70;;
72791;SDS011;60907;53.268;8.764;2023-04-25T05:12:56;6.88;;;1.58;;
72791;SDS011;60907;53.268;8.764;2023-04-25T05:15:22;7.40;;;1.17;;
72791;SDS011;60907;53.268;8.764;2023-04-25T05:17:47;9.68;;;1.58;;
72791;SDS011;60907;53.268;8.764;2023-04-25T05:20:13;12.50;;;1.85;;
72791;SDS011;60907;53.268;8.764;2023-04-25T05:22:39;6.80;;;1.77;;
72791;SDS011;60907;53.268;8.764;2023-04-25T05:25:06;7.70;;;1.50;;
72791;SDS011;60907;53.268;8.764;2023-04-25T05:27:33;6.15;;;1.60;;
72791;SDS011;60907;53.268;8.764;2023-04-25T05:29:58;9.20;;;1.48;;
72791;SDS011;60907;53.268;8.764;2023-04-25T05:32:24;8.88;;;1.60;;
72791;SDS011;60907;53.268;8.764;2023-04-25T05:34:50;10.30;;;1.75;;
72791;SDS011;60907;53.268;8.764;2023-04-25T05:37:15;5.07;;;1.48;;
72791;SDS011;60907;53.268;8.764;2023-04-25T05:39:41;6.20;;;1.42;;
72791;SDS011;60907;53.268;8.764;2023-04-25T05:42:06;7.15;;;1.70;;
72791;SDS011;60907;53.268;8.764;2023-04-25T05:44:31;5.55;;;1.63;;
72791;SDS011;60907;53.268;8.764;2023-04-25T05:46:57;5.30;;;1.35;;
72791;SDS011;60907;53.268;8.764;2023-04-25T05:49:22;3.67;;;1.05;;
72791;SDS011;60907;53.268;8.764;2023-04-25T05:51:48;5.10;;;1.40;;
72791;SDS011;60907;53.268;8.764;2023-04-25T05:54:13;9.63;;;1.67;;
72791;SDS011;60907;53.268;8.764;2023-04-25T05:56:39;7.18;;;1.80;;
72791;SDS011;60907;53.268;8.764;2023-04-25T05:59:04;3.67;;;1.52;;
72791;SDS011;60907;53.268;8.764;2023-04-25T06:01:29;6.63;;;1.13;;
72791;SDS011;60907;53.268;8.764;2023-04-25T06:03:55;5.40;;;1.38;;
72791;SDS011;60907;53.268;8.764;2023-04-25T06:06:20;3.72;;;1.20;;
72791;SDS011;60907;53.268;8.764;2023-04-25T06:08:46;4.85;;;1.33;;
72791;SDS011;60907;53.268;8.764;2023-04-25T06:11:12;5.78;;;1.40;;
72791;SDS011;60907;53.268;8.764;2023-04-25T06:13:37;9.40;;;1.30;;
72791;SDS011;60907;53.268;8.764;2023-04-25T06:16:03;10.93;;;1.73;;
72791;SDS011;60907;53.268;8.764;2023-04-25T06:18:28;4.40;;;1.10;;
72791;SDS011;60907;53.268;8.764;2023-04-25T06:20:54;4.93;;;1.38;;
72791;SDS011;60907;53.268;8.764;2023-04-25T06:23:19;5.90;;;1.27;;
72791;SDS011;60907;53.268;8.764;2023-04-25T06:25:45;6.15;;;1.40;;
72791;SDS011;60907;53.268;8.764;2023-04-25T06:28:10;5.30;;;1.00;;
72791;SDS011;60907;53.268;8.764;2023-04-25T06:30:36;4.05;;;1.38;;
72791;SDS011;60907;53.268;8.764;2023-04-25T06:33:01;9.32;;;1.60;;
72791;SDS011;60907;53.268;8.764;2023-04-25T06:35:27;6.18;;;1.20;;
72791;SDS011;60907;53.268;8.764;2023-04-25T06:37:52;7.70;;;1.67;;
72791;SDS011;60907;53.268;8.764;2023-04-25T06:40:18;3.05;;;1.40;;
72791;SDS011;60907;53.268;8.764;2023-04-25T06:42:43;6.90;;;1.30;;
72791;SDS011;60907;53.268;8.764;2023-04-25T06:45:09;4.95;;;1.30;;
72791;SDS011;60907;53.268;8.764;2023-04-25T06:47:34;4.32;;;1.13;;
72791;SDS011;60907;53.268;8.764;2023-04-25T06:50:00;5.85;;;1.17;;
72791;SDS011;60907;53.268;8.764;2023-04-25T06:52:25;5.38;;;1.25;;
72791;SDS011;60907;53.268;8.764;2023-04-25T06:54:51;8.10;;;2.35;;
72791;SDS011;60907;53.268;8.764;2023-04-25T06:57:16;6.22;;;1.10;;
72791;SDS011;60907;53.268;8.764;2023-04-25T06:59:42;7.90;;;1.40;;
72791;SDS011;60907;53.268;8.764;2023-04-25T07:02:07;6.45;;;1.35;;
72791;SDS011;60907;53.268;8.764;2023-04-25T07:04:32;5.05;;;1.00;;
72791;SDS011;60907;53.268;8.764;2023-04-25T07:06:58;6.78;;;1.73;;
72791;SDS011;60907;53.268;8.764;2023-04-25T07:09:25;3.80;;;1.10;;
72791;SDS011;60907;53.268;8.764;2023-04-25T07:11:51;6.30;;;1.20;;
72791;SDS011;60907;53.268;8.764;2023-04-25T07:14:16;7.15;;;1.33;;
72791;SDS011;60907;53.268;8.764;2023-04-25T07:16:42;4.68;;;1.15;;
72791;SDS011;60907;53.268;8.764;2023-04-25T07:19:07;4.03;;;0.70;;
72791;SDS011;60907;53.268;8.764;2023-04-25T07:21:32;4.82;;;1.20;;
72791;SDS011;60907;53.268;8.764;2023-04-25T07:23:58;2.65;;;0.98;;
72791;SDS011;60907;53.268;8.764;2023-04-25T07:26:23;5.78;;;1.23;;
72791;SDS011;60907;53.268;8.764;2023-04-25T07:28:49;4.30;;;1.27;;
72791;SDS011;60907;53.268;8.764;2023-04-25T07:31:16;8.43;;;2.67;;
72791;SDS011;60907;53.268;8.764;2023-04-25T07:33:43;8.30;;;1.05;;
72791;SDS011;60907;53.268;8.764;2023-04-25T07:36:10;10.20;;;1.23;;
72791;SDS011;60907;53.268;8.764;2023-04-25T07:38:35;10.68;;;1.25;;
72791;SDS011;60907;53.268;8.764;2023-04-25T07:41:01;4.13;;;0.80;;
72791;SDS011;60907;53.268;8.764;2023-04-25T07:43:26;5.22;;;1.13;;
72791;SDS011;60907;53.268;8.764;2023-04-25T07:45:52;4.07;;;1.10;;
72791;SDS011;60907;53.268;8.764;2023-04-25T07:48:17;7.57;;;1.38;;
72791;SDS011;60907;53.268;8.764;2023-04-25T07:50:45;4.07;;;0.93;;
72791;SDS011;60907;53.268;8.764;2023-04-25T07:53:11;11.15;;;1.15;;
72791;SDS011;60907;53.268;8.764;2023-04-25T07:55:36;3.95;;;1.27;;
72791;SDS011;60907;53.268;8.764;2023-04-25T07:58:05;6.80;;;1.42;;
72791;SDS011;60907;53.268;8.764;2023-04-25T08:00:34;7.88;;;1.70;;
72791;SDS011;60907;53.268;8.764;2023-04-25T08:02:59;3.95;;;1.27;;
72791;SDS011;60907;53.268;8.764;2023-04-25T08:05:25;3.15;;;0.82;;
72791;SDS011;60907;53.268;8.764;2023-04-25T08:07:50;6.63;;;1.35;;
72791;SDS011;60907;53.268;8.764;2023-04-25T08:10:16;3.80;;;0.90;;
72791;SDS011;60907;53.268;8.764;2023-04-25T08:12:41;6.63;;;1.05;;
72791;SDS011;60907;53.268;8.764;2023-04-25T08:15:07;7.68;;;1.15;;
72791;SDS011;60907;53.268;8.764;2023-04-25T08:17:33;5.53;;;0.60;;
72791;SDS011;60907;53.268;8.764;2023-04-25T08:19:58;7.70;;;1.08;;
72791;SDS011;60907;53.268;8.764;2023-04-25T08:22:24;6.68;;;0.70;;
72791;SDS011;60907;53.268;8.764;2023-04-25T08:24:49;4.25;;;0.93;;
72791;SDS011;60907;53.268;8.764;2023-04-25T08:27:14;5.20;;;0.80;;
72791;SDS011;60907;53.268;8.764;2023-04-25T08:29:41;2.17;;;0.68;;
72791;SDS011;60907;53.268;8.764;2023-04-25T08:32:07;3.40;;;1.02;;
72791;SDS011;60907;53.268;8.764;2023-04-25T08:34:32;3.75;;;0.68;;
72791;SDS011;60907;53.268;8.764;2023-04-25T08:36:57;4.13;;;0.50;;
72791;SDS011;60907;53.268;8.764;2023-04-25T08:39:23;4.95;;;1.08;;
72791;SDS011;60907;53.268;8.764;2023-04-25T08:41:48;4.60;;;0.93;;
72791;SDS011;60907;53.268;8.764;2023-04-25T08:44:14;3.75;;;1.38;;
72791;SDS011;60907;53.268;8.764;2023-04-25T08:46:40;3.42;;;0.50;;
72791;SDS011;60907;53.268;8.764;2023-04-25T08:49:06;3.67;;;0.77;;
72791;SDS011;60907;53.268;8.764;2023-04-25T08:51:32;5.43;;;0.82;;
72791;SDS011;60907;53.268;8.764;2023-04-25T08:54:10;4.97;;;0.98;;
72791;SDS011;60907;53.268;8.764;2023-04-25T08:56:55;3.30;;;0.80;;
72791;SDS011;60907;53.268;8.764;2023-04-25T08:59:22;2.58;;;0.60;;
72791;SDS011;60907;53.268;8.764;2023-04-25T09:01:49;8.45;;;1.15;;
72791;SDS011;60907;53.268;8.764;2023-04-25T09:04:15;5.90;;;0.88;;
72791;SDS011;60907;53.268;8.764;2023-04-25T09:06:40;3.70;;;0.63;;
72791;SDS011;60907;53.268;8.764;2023-04-25T09:09:06;3.10;;;0.77;;
72791;SDS011;60907;53.268;8.764;2023-04-25T09:11:33;2.42;;;0.60;;
72791;SDS011;60907;53.268;8.764;2023-04-25T09:14:17;1.27;;;0.50;;
72791;SDS011;60907;53.268;8.764;2023-04-25T09:19:26;5.18;;;1.42;;
72791;SDS011;60907;53.268;8.764;2023-04-25T09:21:53;5.10;;;0.77;;
72791;SDS011;60907;53.268;8.764;2023-04-25T09:24:41;2.63;;;0.65;;
72791;SDS011;60907;53.268;8.764;2023-04-25T09:27:07;2.63;;;0.63;;
72791;SDS011;60907;53.268;8.764;2023-04-25T09:29:34;1.58;;;0.30;;
72791;SDS011;60907;53.268;8.764;2023-04-25T09:32:20;2.30;;;0.70;;
72791;SDS011;60907;53.268;8.764;2023-04-25T09:34:48;2.50;;;0.52;;
72791;SDS011;60907;53.268;8.764;2023-04-25T09:37:22;2.40;;;0.52;;
72791;SDS011;60907;53.268;8.764;2023-04-25T09:42:26;2.30;;;0.50;;
72791;SDS011;60907;53.268;8.764;2023-04-25T09:44:54;2.60;;;0.50;;
72791;SDS011;60907;53.268;8.764;2023-04-25T09:47:20;5.95;;;0.70;;
72791;SDS011;60907;53.268;8.764;2023-04-25T09:49:48;2.83;;;0.88;;
72791;SDS011;60907;53.268;8.764;2023-04-25T09:52:15;2.08;;;0.50;;
72791;SDS011;60907;53.268;8.764;2023-04-25T09:54:42;4.82;;;1.45;;
72791;SDS011;60907;53.268;8.764;2023-04-25T09:57:12;5.35;;;0.68;;
72791;SDS011;60907;53.268;8.764;2023-04-25T09:59:47;7.38;;;0.98;;
72791;SDS011;60907;53.268;8.764;2023-04-25T10:02:14;5.35;;;0.70;;
72791;SDS011;60907;53.268;8.764;2023-04-25T10:04:42;5.95;;;1.00;;
72791;SDS011;60907;53.268;8.764;2023-04-25T10:07:10;7.30;;;1.23;;
72791;SDS011;60907;53.268;8.764;2023-04-25T10:09:37;2.97;;;0.52;;
72791;SDS011;60907;53.268;8.764;2023-04-25T10:12:04;2.35;;;0.80;;
72791;SDS011;60907;53.268;8.764;2023-04-25T10:14:30;4.32;;;0.77;;
72791;SDS011;60907;53.268;8.764;2023-04-25T10:16:57;4.35;;;0.90;;
72791;SDS011;60907;53.268;8.764;2023-04-25T10:19:23;4.40;;;1.15;;
72791;SDS011;60907;53.268;8.764;2023-04-25T10:24:23;3.00;;;0.90;;
72791;SDS011;60907;53.268;8.764;2023-04-25T10:26:49;3.45;;;0.70;;
72791;SDS011;60907;53.268;8.764;2023-04-25T10:29:22;3.85;;;0.88;;
72791;SDS011;60907;53.268;8.764;2023-04-25T10:31:49;2.70;;;0.50;;
72791;SDS011;60907;53.268;8.764;2023-04-25T10:34:15;6.78;;;1.67;;
72791;SDS011;60907;53.268;8.764;2023-04-25T10:36:42;4.35;;;1.08;;
72791;SDS011;60907;53.268;8.764;2023-04-25T10:39:07;3.15;;;0.65;;
72791;SDS011;60907;53.268;8.764;2023-04-25T10:41:47;2.63;;;0.60;;
72791;SDS011;60907;53.268;8.764;2023-04-25T10:44:14;2.03;;;0.65;;
72791;SDS011;60907;53.268;8.764;2023-04-25T10:46:40;3.10;;;0.73;;
72791;SDS011;60907;53.268;8.764;2023-04-25T10:49:05;1.50;;;0.52;;
72791;SDS011;60907;53.268;8.764;2023-04-25T10:51:33;3.47;;;0.57;;
72791;SDS011;60907;53.268;8.764;2023-04-25T10:54:00;3.03;;;0.50;;
72791;SDS011;60907;53.268;8.764;2023-04-25T10:56:28;2.70;;;0.50;;
72791;SDS011;60907;53.268;8.764;2023-04-25T11:01:35;1.88;;;0.85;;
72791;SDS011;60907;53.268;8.764;2023-04-25T11:06:40;2.78;;;0.50;;
72791;SDS011;60907;53.268;8.764;2023-04-25T11:09:27;1.65;;;0.60;;
72791;SDS011;60907;53.268;8.764;2023-04-25T11:11:56;5.72;;;0.77;;
72791;SDS011;60907;53.268;8.764;2023-04-25T11:14:23;7.43;;;1.08;;
72791;SDS011;60907;53.268;8.764;2023-04-25T11:16:52;2.10;;;0.65;;
72791;SDS011;60907;53.268;8.764;2023-04-25T11:19:21;3.53;;;0.50;;
72791;SDS011;60907;53.268;8.764;2023-04-25T11:21:47;5.15;;;0.73;;
72791;SDS011;60907;53.268;8.764;2023-04-25T11:24:13;4.20;;;0.88;;
72791;SDS011;60907;53.268;8.764;2023-04-25T11:26:41;5.20;;;0.70;;
72791;SDS011;60907;53.268;8.764;2023-04-25T11:29:07;3.67;;;0.85;;
72791;SDS011;60907;53.268;8.764;2023-04-25T11:31:32;4.68;;;1.00;;
72791;SDS011;60907;53.268;8.764;2023-04-25T11:33:58;3.67;;;0.80;;
72791;SDS011;60907;53.268;8.764;2023-04-25T11:36:24;5.72;;;0.68;;
72791;SDS011;60907;53.268;8.764;2023-04-25T11:38:51;3.00;;;0.60;;
72791;SDS011;60907;53.268;8.764;2023-04-25T11:41:17;3.35;;;0.63;;
72791;SDS011;60907;53.268;8.764;2023-04-25T11:43:43;5.22;;;0.57;;
72791;SDS011;60907;53.268;8.764;2023-04-25T11:46:09;3.25;;;0.90;;
72791;SDS011;60907;53.268;8.764;2023-04-25T11:48:41;5.60;;;0.68;;
72791;SDS011;60907;53.268;8.764;2023-04-25T11:51:07;6.80;;;0.88;;
72791;SDS011;60907;53.268;8.764;2023-04-25T11:53:32;3.50;;;0.60;;
72791;SDS011;60907;53.268;8.764;2023-04-25T11:55:58;5.43;;;1.17;;
72791;SDS011;60907;53.268;8.764;2023-04-25T11:58:23;2.63;;;0.70;;
72791;SDS011;60907;53.268;8.764;2023-04-25T12:00:50;4.72;;;0.98;;
72791;SDS011;60907;53.268;8.764;2023-04-25T12:03:15;2.42;;;1.00;;
72791;SDS011;60907;53.268;8.764;2023-04-25T12:05:42;5.43;;;0.88;;
72791;SDS011;60907;53.268;8.764;2023-04-25T12:08:13;3.47;;;0.88;;
72791;SDS011;60907;53.268;8.764;2023-04-25T12:10:39;1.23;;;0.60;;
72791;SDS011;60907;53.268;8.764;2023-04-25T12:13:21;2.90;;;0.75;;
72791;SDS011;60907;53.268;8.764;2023-04-25T12:15:49;3.33;;;0.52;;
72791;SDS011;60907;53.268;8.764;2023-04-25T12:18:18;11.77;;;1.20;;
72791;SDS011;60907;53.268;8.764;2023-04-25T12:20:45;5.95;;;1.05;;
72791;SDS011;60907;53.268;8.764;2023-04-25T12:23:10;3.75;;;2.05;;
72791;SDS011;60907;53.268;8.764;2023-04-25T12:25:40;3.88;;;0.93;;
72791;SDS011;60907;53.268;8.764;2023-04-25T12:28:23;4.57;;;0.93;;
72791;SDS011;60907;53.268;8.764;2023-04-25T12:30:59;2.40;;;1.17;;
72791;SDS011;60907;53.268;8.764;2023-04-25T12:33:30;2.53;;;0.70;;
72791;SDS011;60907;53.268;8.764;2023-04-25T12:35:57;3.05;;;0.77;;
72791;SDS011;60907;53.268;8.764;2023-04-25T12:38:24;3.40;;;0.95;;
72791;SDS011;60907;53.268;8.764;2023-04-25T12:40:50;3.78;;;1.30;;
72791;SDS011;60907;53.268;8.764;2023-04-25T12:43:16;5.85;;;0.90;;
72791;SDS011;60907;53.268;8.764;2023-04-25T12:45:42;2.03;;;0.73;;
72791;SDS011;60907;53.268;8.764;2023-04-25T12:48:08;8.32;;;1.10;;
72791;SDS011;60907;53.268;8.764;2023-04-25T12:50:34;2.75;;;0.63;;
72791;SDS011;60907;53.268;8.764;2023-04-25T12:52:59;2.55;;;0.70;;
72791;SDS011;60907;53.268;8.764;2023-04-25T12:55:25;1.83;;;0.50;;
72791;SDS011;60907;53.268;8.764;2023-04-25T12:57:50;5.60;;;1.38;;
72791;SDS011;60907;53.268;8.764;2023-04-25T13:00:16;3.65;;;0.55;;
72791;SDS011;60907;53.268;8.764;2023-04-25T13:02:44;4.50;;;0.85;;
72791;SDS011;60907;53.268;8.764;2023-04-25T13:05:11;1.63;;;0.73;;
72791;SDS011;60907;53.268;8.764;2023-04-25T13:07:37;3.30;;;0.88;;
72791;SDS011;60907;53.268;8.764;2023-04-25T13:10:03;3.08;;;0.60;;
72791;SDS011;60907;53.268;8.764;2023-04-25T13:12:29;3.47;;;1.05;;
72791;SDS011;60907;53.268;8.764;2023-04-25T13:14:55;6.47;;;0.90;;
72791;SDS011;60907;53.268;8.764;2023-04-25T13:17:21;4.75;;;0.82;;
72791;SDS011;60907;53.268;8.764;2023-04-25T13:19:46;4.90;;;0.90;;
72791;SDS011;60907;53.268;8.764;2023-04-25T13:22:11;4.38;;;0.98;;
72791;SDS011;60907;53.268;8.764;2023-04-25T13:24:38;3.30;;;0.73;;
72791;SDS011;60907;53.268;8.764;2023-04-25T13:27:04;2.22;;;0.70;;
72791;SDS011;60907;53.268;8.764;2023-04-25T13:29:29;3.08;;;0.60;;
72791;SDS011;60907;53.268;8.764;2023-04-25T13:31:55;1.73;;;0.50;;
72791;SDS011;60907;53.268;8.764;2023-04-25T13:34:20;1.63;;;0.70;;
72791;SDS011;60907;53.268;8.764;2023-04-25T13:36:46;3.20;;;0.70;;
72791;SDS011;60907;53.268;8.764;2023-04-25T13:39:11;3.33;;;0.93;;
72791;SDS011;60907;53.268;8.764;2023-04-25T13:41:37;3.10;;;1.20;;
72791;SDS011;60907;53.268;8.764;2023-04-25T13:44:02;6.80;;;0.93;;
72791;SDS011;60907;53.268;8.764;2023-04-25T13:46:28;2.90;;;0.85;;
72791;SDS011;60907;53.268;8.764;2023-04-25T13:48:54;3.65;;;0.90;;
72791;SDS011;60907;53.268;8.764;2023-04-25T13:51:19;5.15;;;1.20;;
72791;SDS011;60907;53.268;8.764;2023-04-25T13:53:45;6.60;;;1.15;;
72791;SDS011;60907;53.268;8.764;2023-04-25T13:56:11;2.42;;;0.82;;
72791;SDS011;60907;53.268;8.764;2023-04-25T13:58:36;8.10;;;1.73;;
72791;SDS011;60907;53.268;8.764;2023-04-25T14:01:02;3.45;;;1.10;;
72791;SDS011;60907;53.268;8.764;2023-04-25T14:03:28;2.35;;;0.60;;
72791;SDS011;60907;53.268;8.764;2023-04-25T14:05:55;2.65;;;0.82;;
72791;SDS011;60907;53.268;8.764;2023-04-25T14:08:20;4.35;;;0.80;;
72791;SDS011;60907;53.268;8.764;2023-04-25T14:10:45;2.53;;;0.73;;
72791;SDS011;60907;53.268;8.764;2023-04-25T14:13:11;4.15;;;0.80;;
72791;SDS011;60907;53.268;8.764;2023-04-25T14:15:36;4.20;;;0.75;;
72791;SDS011;60907;53.268;8.764;2023-04-25T14:18:02;3.22;;;1.00;;
72791;SDS011;60907;53.268;8.764;2023-04-25T14:20:27;2.63;;;1.13;;
72791;SDS011;60907;53.268;8.764;2023-04-25T14:22:53;3.13;;;0.73;;
72791;SDS011;60907;53.268;8.764;2023-04-25T14:25:21;5.57;;;0.47;;
72791;SDS011;60907;53.268;8.764;2023-04-25T14:27:47;4.00;;;1.10;;
72791;SDS011;60907;53.268;8.764;2023-04-25T14:30:15;7.40;;;1.05;;
72791;SDS011;60907;53.268;8.764;2023-04-25T14:32:41;6.95;;;1.15;;
72791;SDS011;60907;53.268;8.764;2023-04-25T14:35:06;6.47;;;1.60;;
72791;SDS011;60907;53.268;8.764;2023-04-25T14:37:32;3.33;;;0.85;;
72791;SDS011;60907;53.268;8.764;2023-04-25T14:39:58;4.13;;;0.98;;
72791;SDS011;60907;53.268;8.764;2023-04-25T14:42:23;8.93;;;1.98;;
72791;SDS011;60907;53.268;8.764;2023-04-25T14:44:49;5.07;;;1.10;;
72791;SDS011;60907;53.268;8.764;2023-04-25T14:47:14;5.97;;;1.02;;
72791;SDS011;60907;53.268;8.764;2023-04-25T14:49:41;3.03;;;1.00;;
72791;SDS011;60907;53.268;8.764;2023-04-25T14:52:06;3.45;;;0.50;;
72791;SDS011;60907;53.268;8.764;2023-04-25T14:54:32;4.97;;;1.38;;
72791;SDS011;60907;53.268;8.764;2023-04-25T14:56:58;5.47;;;1.27;;